Terminal Aerodrome Forecast
Issued by NWS Topeka, KS

Home | Current Version | Previous Version | Text Only | Print | Product List | Glossary Off
Versions: 1 2 3 4 5 6 7 8 9 10 11 12 13 14 15 16 17 18 19

000
FTUS43 KTOP 310900 AAA
TAFTOP
TAF AMD
KTOP 310931Z 3110/0106 01005KT P6SM OVC018
     FM311100 03005KT 5SM BR SCT008 OVC014
     FM311400 05008KT P6SM BKN018
     FM311800 07007KT P6SM FEW035 SCT150=

USA.gov is the U.S. government's official web portal to all federal, state and local government web resources and services.